Time;durP1;ratioP1;P1;durP2;ratioP2;P2;SDS_P1;SDS_P2;PMS_P1;PMS_P2;Temp;Humidity;BMP_temperature;BMP_pressure;BME280_temperature;BME280_humidity;BME280_pressure;Samples;Min_cycle;Max_cycle;Signal;HPM_P1;HPM_P2
2022/05/19 00:02:22;;;;;;;5.55;1.85;;;18.00;73.00;;;;;;5023616;28;20030;-88
2022/05/19 00:04:48;;;;;;;7.35;1.85;;;18.00;73.60;;;;;;5043550;28;20029;-88
2022/05/19 00:07:14;;;;;;;3.08;1.80;;;17.90;73.30;;;;;;5041304;28;20474;-90
2022/05/19 00:09:40;;;;;;;2.90;1.95;;;17.90;74.00;;;;;;5042006;28;20029;-90
2022/05/19 00:12:18;;;;;;;2.83;1.80;;;17.80;74.10;;;;;;5045152;28;20112;-88
2022/05/19 00:14:44;;;;;;;8.35;2.15;;;17.80;74.10;;;;;;5031275;28;20028;-88
2022/05/19 00:17:09;;;;;;;4.72;2.15;;;17.80;74.60;;;;;;5025182;28;20472;-87
2022/05/19 00:19:35;;;;;;;4.88;2.03;;;17.70;75.10;;;;;;5041790;28;20044;-87
2022/05/19 00:22:01;;;;;;;6.00;2.10;;;17.60;75.00;;;;;;5041061;28;20079;-87
2022/05/19 00:24:28;;;;;;;4.68;2.00;;;17.60;75.30;;;;;;5045811;28;20029;-87
2022/05/19 00:26:54;;;;;;;10.23;2.10;;;17.50;75.80;;;;;;5043107;28;20029;-87
2022/05/19 00:29:19;;;;;;;5.50;1.80;;;17.50;75.90;;;;;;5036272;28;20091;-88
2022/05/19 00:31:45;;;;;;;2.83;1.80;;;17.40;75.90;;;;;;5042410;28;20029;-86
2022/05/19 00:34:11;;;;;;;5.60;1.80;;;17.40;76.40;;;;;;5043760;28;20045;-88
2022/05/19 00:36:37;;;;;;;4.43;1.98;;;17.40;77.00;;;;;;5043402;28;20582;-88
2022/05/19 00:39:03;;;;;;;3.40;2.03;;;17.40;77.00;;;;;;5034768;28;20065;-86
2022/05/19 00:41:29;;;;;;;3.38;2.00;;;17.30;77.10;;;;;;5038715;28;20033;-87
2022/05/19 00:44:01;;;;;;;7.25;2.20;;;17.20;77.70;;;;;;5044608;28;20031;-87
2022/05/19 00:46:45;;;;;;;5.70;2.00;;;17.10;77.70;;;;;;5039449;28;20021;-87
2022/05/19 00:49:25;;;;;;;7.47;2.55;;;17.10;77.60;;;;;;5012946;28;20053;-88
2022/05/19 00:52:02;;;;;;;5.45;2.50;;;17.20;76.80;;;;;;5038377;28;20112;-86
2022/05/19 00:54:35;;;;;;;5.53;2.20;;;17.20;76.50;;;;;;5021214;28;20099;-90
2022/05/19 00:57:26;;;;;;;3.15;1.85;;;17.30;75.80;;;;;;5030979;28;20051;-86
2022/05/19 01:00:06;;;;;;;6.45;1.88;;;17.40;75.60;;;;;;5046440;28;20035;-86
2022/05/19 01:02:39;;;;;;;5.97;2.13;;;17.30;76.80;;;;;;5041564;28;20033;-86
2022/05/19 01:05:09;;;;;;;;;;;17.20;77.20;;;;;;5051724;28;20056;-87
2022/05/19 01:08:13;;;;;;;3.72;2.25;;;17.10;76.60;;;;;;5050041;28;19920;-89
2022/05/19 01:10:40;;;;;;;7.72;2.90;;;17.10;76.60;;;;;;5043526;28;20484;-86
2022/05/19 01:13:07;;;;;;;7.68;2.60;;;17.10;77.90;;;;;;5041552;28;20025;-86
2022/05/19 01:15:40;;;;;;;5.15;2.85;;;16.90;77.50;;;;;;5033081;28;20057;-86
2022/05/19 01:18:07;;;;;;;8.38;2.33;;;16.90;79.00;;;;;;5035913;28;20036;-86
2022/05/19 01:20:35;;;;;;;4.97;2.30;;;16.80;79.20;;;;;;5040810;28;20034;-87
2022/05/19 01:23:07;;;;;;;7.40;1.98;;;16.70;79.00;;;;;;5041599;28;20027;-87
2022/05/19 01:25:58;;;;;;;10.95;2.28;;;16.60;80.00;;;;;;5038162;28;20070;-87
2022/05/19 01:28:24;;;;;;;5.18;2.42;;;16.70;78.00;;;;;;5039777;28;20610;-87
2022/05/19 01:30:49;;;;;;;5.03;2.00;;;16.80;77.60;;;;;;5046211;28;20104;-86
2022/05/19 01:33:15;;;;;;;2.88;1.90;;;16.80;77.60;;;;;;5039707;28;20021;-87
2022/05/19 01:35:59;;;;;;;6.15;2.20;;;16.80;78.10;;;;;;5036310;28;20100;-87
2022/05/19 01:38:32;;;;;;;3.05;2.03;;;16.70;77.70;;;;;;5039588;28;20038;-87
2022/05/19 01:41:00;;;;;;;;;;;16.80;77.70;;;;;;5042537;28;20645;-86
2022/05/19 01:43:44;;;;;;;2.38;1.83;;;16.70;77.60;;;;;;5021795;28;19963;-87
2022/05/19 01:46:10;;;;;;;3.53;1.92;;;16.80;77.60;;;;;;5020356;28;20029;-85
2022/05/19 01:48:54;;;;;;;4.32;2.00;;;16.70;78.30;;;;;;5041618;28;20048;-85
2022/05/19 01:51:43;;;;;;;3.45;2.20;;;16.70;78.50;;;;;;5039982;28;20025;-87
2022/05/19 01:54:25;;;;;;;5.85;2.33;;;16.50;79.40;;;;;;5033604;28;20032;-86
2022/05/19 01:57:15;;;;;;;3.60;2.08;;;16.40;79.80;;;;;;5035574;28;20037;-87
2022/05/19 01:59:55;;;;;;;2.30;1.90;;;16.50;80.30;;;;;;5042706;28;20548;-91
2022/05/19 02:02:39;;;;;;;6.50;2.20;;;16.60;79.70;;;;;;5029214;28;20293;-90
2022/05/19 02:05:43;;;;;;;6.18;1.90;;;16.60;79.30;;;;;;5034042;28;20060;-88
2022/05/19 02:08:17;;;;;;;3.05;1.95;;;16.70;77.90;;;;;;5037752;28;20026;-88
2022/05/19 02:10:49;;;;;;;2.85;2.03;;;16.70;78.70;;;;;;5026536;28;20065;-87
2022/05/19 02:13:16;;;;;;;3.65;2.00;;;16.60;78.50;;;;;;5035910;28;20049;-87
2022/05/19 02:15:45;;;;;;;4.85;1.90;;;16.60;77.10;;;;;;5038423;28;20049;-86
2022/05/19 02:18:13;;;;;;;4.47;2.13;;;16.70;77.30;;;;;;5022368;28;20029;-86
2022/05/19 02:20:42;;;;;;;3.30;1.67;;;16.70;76.40;;;;;;5017638;28;20025;-87
2022/05/19 02:23:11;;;;;;;5.60;2.10;;;16.70;75.10;;;;;;5039785;28;20021;-86
2022/05/19 02:25:53;;;;;;;4.60;1.73;;;16.70;75.70;;;;;;5042928;28;20495;-87
2022/05/19 02:28:31;;;;;;;6.30;2.25;;;16.70;75.20;;;;;;5037734;28;20021;-87
2022/05/19 02:30:57;;;;;;;4.68;1.80;;;16.70;76.20;;;;;;5023793;28;20402;-87
2022/05/19 02:33:23;;;;;;;3.67;1.70;;;16.70;75.30;;;;;;5038868;28;20105;-86
2022/05/19 02:35:49;;;;;;;2.95;1.85;;;16.60;75.20;;;;;;5040085;28;20111;-86
2022/05/19 02:38:17;;;;;;;3.70;1.90;;;16.60;76.00;;;;;;5026286;28;20083;-86
2022/05/19 02:40:43;;;;;;;2.97;1.95;;;16.60;76.40;;;;;;5028401;28;20030;-86
2022/05/19 02:43:09;;;;;;;2.70;2.05;;;16.60;76.20;;;;;;5041541;28;20260;-86
2022/05/19 02:45:36;;;;;;;3.95;1.85;;;16.60;76.80;;;;;;5043176;28;20279;-86
2022/05/19 02:48:03;;;;;;;6.55;1.90;;;16.50;77.40;;;;;;5043595;28;20028;-85
2022/05/19 02:50:30;;;;;;;4.15;1.80;;;16.60;76.80;;;;;;5047323;28;20041;-85
2022/05/19 02:52:55;;;;;;;3.55;1.92;;;16.60;76.50;;;;;;5025615;28;20021;-85
2022/05/19 02:55:21;;;;;;;6.70;2.03;;;16.70;76.00;;;;;;5040107;28;20430;-87
2022/05/19 02:57:48;;;;;;;2.80;2.05;;;16.70;76.70;;;;;;5041493;28;20034;-86
2022/05/19 03:00:18;;;;;;;4.95;2.03;;;16.70;75.20;;;;;;5038591;28;20026;-87
2022/05/19 03:02:45;;;;;;;2.17;1.80;;;16.60;75.90;;;;;;5037875;28;20395;-88
2022/05/19 03:05:23;;;;;;;9.93;2.08;;;16.60;76.00;;;;;;5046795;28;20022;-87
2022/05/19 03:07:49;;;;;;;4.40;1.92;;;16.60;75.40;;;;;;5037917;28;20032;-89
2022/05/19 03:10:19;;;;;;;6.65;1.80;;;16.60;75.60;;;;;;5015328;28;20025;-88
2022/05/19 03:12:45;;;;;;;5.30;2.40;;;16.70;75.50;;;;;;5019898;28;20029;-85
2022/05/19 03:15:11;;;;;;;5.38;2.00;;;16.80;75.90;;;;;;5041251;28;20091;-86
2022/05/19 03:17:38;;;;;;;2.97;1.67;;;16.80;75.20;;;;;;5039003;28;20434;-87
2022/05/19 03:20:06;;;;;;;3.45;1.85;;;16.80;75.60;;;;;;5028454;28;20034;-86
2022/05/19 03:22:32;;;;;;;10.30;1.88;;;16.80;75.60;;;;;;5043324;28;20029;-88
2022/05/19 03:24:57;;;;;;;9.07;2.10;;;16.80;75.70;;;;;;5028116;28;20032;-88
2022/05/19 03:27:23;;;;;;;5.85;2.20;;;16.80;75.70;;;;;;5023072;28;20064;-87
2022/05/19 03:29:50;;;;;;;3.47;1.83;;;16.80;75.60;;;;;;5039748;28;20103;-86
2022/05/19 03:32:16;;;;;;;8.15;2.10;;;16.80;75.90;;;;;;5024192;28;20503;-86
2022/05/19 03:34:43;;;;;;;5.45;1.85;;;16.70;76.20;;;;;;5039609;28;20029;-88
2022/05/19 03:37:08;;;;;;;3.78;2.03;;;16.70;76.10;;;;;;5042927;28;20032;-85
2022/05/19 03:39:36;;;;;;;7.55;2.10;;;16.70;76.40;;;;;;5038422;28;20041;-87
2022/05/19 03:42:05;;;;;;;5.97;2.00;;;16.60;77.00;;;;;;5042172;28;20029;-88
2022/05/19 03:44:31;;;;;;;3.13;1.80;;;16.60;77.30;;;;;;5038168;28;20357;-90
2022/05/19 03:46:57;;;;;;;5.45;1.83;;;16.60;77.80;;;;;;5042319;28;20024;-89
2022/05/19 03:49:22;;;;;;;5.25;1.80;;;16.60;77.00;;;;;;5048555;28;20045;-88
2022/05/19 03:51:48;;;;;;;5.70;2.00;;;16.60;76.70;;;;;;5037983;28;20537;-89
2022/05/19 03:54:14;;;;;;;6.95;2.08;;;16.50;76.90;;;;;;5039624;28;20117;-88
2022/05/19 03:56:40;;;;;;;5.55;2.00;;;16.50;77.00;;;;;;5040078;28;20033;-89
2022/05/19 03:59:06;;;;;;;2.75;1.83;;;16.50;77.30;;;;;;5047191;28;20094;-90
2022/05/19 04:01:32;;;;;;;4.38;2.03;;;16.50;77.10;;;;;;5041861;28;20067;-89
2022/05/19 04:03:59;;;;;;;4.95;2.15;;;16.50;77.30;;;;;;5027479;28;20078;-88
2022/05/19 04:06:25;;;;;;;11.50;2.10;;;16.60;77.70;;;;;;5043989;28;20029;-88
2022/05/19 04:08:51;;;;;;;3.67;1.85;;;16.60;78.20;;;;;;5038091;28;20485;-87
2022/05/19 04:11:18;;;;;;;6.18;2.10;;;16.60;78.30;;;;;;5019657;28;20021;-88
2022/05/19 04:13:44;;;;;;;6.22;2.00;;;16.70;78.20;;;;;;5038985;28;20049;-88
2022/05/19 04:16:11;;;;;;;6.05;1.92;;;16.70;78.30;;;;;;5038531;28;20020;-87
2022/05/19 04:18:37;;;;;;;5.72;2.40;;;16.70;79.00;;;;;;5037462;28;20040;-88
2022/05/19 04:21:04;;;;;;;5.07;2.00;;;16.70;78.70;;;;;;5039309;28;20021;-88
2022/05/19 04:23:30;;;;;;;5.45;2.10;;;16.60;78.40;;;;;;5042859;28;20017;-88
2022/05/19 04:25:56;;;;;;;4.85;1.80;;;16.70;78.70;;;;;;5038486;28;20078;-87
2022/05/19 04:28:22;;;;;;;3.10;1.67;;;16.70;79.00;;;;;;5024434;28;20017;-87
2022/05/19 04:30:52;;;;;;;4.68;2.05;;;16.70;78.30;;;;;;5043767;28;20029;-87
2022/05/19 04:33:18;;;;;;;7.40;2.00;;;16.70;78.00;;;;;;5042921;28;20155;-87
2022/05/19 04:35:44;;;;;;;6.28;2.28;;;16.70;78.80;;;;;;5029437;28;20049;-88
2022/05/19 04:38:12;;;;;;;4.35;1.90;;;16.80;77.50;;;;;;5040437;28;20064;-86
2022/05/19 04:40:40;;;;;;;5.07;2.53;;;16.80;77.40;;;;;;5037256;28;20090;-87
2022/05/19 04:43:07;;;;;;;3.80;2.10;;;16.90;77.00;;;;;;5040892;28;20025;-87
2022/05/19 04:45:33;;;;;;;3.65;1.92;;;16.90;78.00;;;;;;5035989;28;20047;-87
2022/05/19 04:47:59;;;;;;;5.85;2.10;;;17.00;77.70;;;;;;5041933;28;20518;-88
2022/05/19 04:50:25;;;;;;;7.00;1.95;;;17.00;78.30;;;;;;5046247;28;20038;-88
2022/05/19 04:52:51;;;;;;;2.25;2.00;;;16.90;78.10;;;;;;5042084;28;20484;-87
2022/05/19 04:55:17;;;;;;;8.02;2.20;;;17.00;78.10;;;;;;5046700;28;20018;-88
2022/05/19 04:57:47;;;;;;;7.68;2.10;;;17.00;77.00;;;;;;5021489;28;20051;-86
2022/05/19 05:00:17;;;;;;;3.72;1.55;;;17.10;76.50;;;;;;5038834;28;20055;-86
2022/05/19 05:02:43;;;;;;;4.50;1.70;;;17.10;77.40;;;;;;5036065;28;20438;-87
2022/05/19 05:05:09;;;;;;;2.50;1.63;;;17.10;77.30;;;;;;5023434;28;20028;-87
2022/05/19 05:07:35;;;;;;;3.55;2.00;;;17.10;77.70;;;;;;5022731;28;20108;-87
2022/05/19 05:10:02;;;;;;;5.78;2.20;;;17.10;77.90;;;;;;5051479;28;20024;-87
2022/05/19 05:12:27;;;;;;;4.00;1.83;;;17.10;78.30;;;;;;5041127;28;20040;-86
2022/05/19 05:14:53;;;;;;;3.35;2.10;;;17.10;78.80;;;;;;5049264;28;20100;-89
2022/05/19 05:17:21;;;;;;;5.63;2.00;;;17.10;78.40;;;;;;5009565;28;20033;-88
2022/05/19 05:19:47;;;;;;;4.13;1.73;;;17.20;78.90;;;;;;5034183;28;20673;-89
2022/05/19 05:22:13;;;;;;;4.38;1.95;;;17.20;79.10;;;;;;5046733;28;20112;-89
2022/05/19 05:24:39;;;;;;;5.95;1.70;;;17.30;77.90;;;;;;5045860;28;20060;-89
2022/05/19 05:27:05;;;;;;;4.75;1.73;;;17.40;78.60;;;;;;5046964;28;20029;-88
2022/05/19 05:29:32;;;;;;;5.82;2.17;;;17.50;78.00;;;;;;5044543;28;20091;-90
2022/05/19 05:31:57;;;;;;;3.20;2.03;;;17.50;77.40;;;;;;5041799;28;20025;-89
2022/05/19 05:34:24;;;;;;;3.47;1.63;;;17.60;77.20;;;;;;5045354;28;20026;-87
2022/05/19 05:36:50;;;;;;;9.02;2.08;;;17.60;76.80;;;;;;5036505;28;20029;-90
2022/05/19 05:39:16;;;;;;;3.55;2.17;;;17.60;76.00;;;;;;5039691;28;20029;-88
2022/05/19 05:41:41;;;;;;;6.63;1.80;;;17.70;77.00;;;;;;5022212;28;20056;-87
2022/05/19 05:44:08;;;;;;;4.53;1.85;;;17.80;76.90;;;;;;5040474;28;20029;-89
2022/05/19 05:46:33;;;;;;;4.95;1.60;;;17.80;76.70;;;;;;5021461;28;20491;-88
2022/05/19 05:48:59;;;;;;;18.00;1.88;;;17.90;76.10;;;;;;5018379;28;20037;-88
2022/05/19 05:51:25;;;;;;;3.47;1.80;;;18.00;76.20;;;;;;5040059;28;20406;-88
2022/05/19 05:53:51;;;;;;;3.97;1.60;;;18.10;74.90;;;;;;5036658;28;20037;-89
2022/05/19 05:56:19;;;;;;;5.05;1.77;;;18.10;74.60;;;;;;5035697;28;20031;-88
2022/05/19 05:58:45;;;;;;;3.22;1.85;;;18.20;74.90;;;;;;5038674;28;20041;-88
2022/05/19 06:01:13;;;;;;;2.63;1.70;;;18.30;74.60;;;;;;5038841;28;20565;-85
2022/05/19 06:03:39;;;;;;;6.40;2.00;;;18.30;74.60;;;;;;5037923;28;20496;-89
2022/05/19 06:06:05;;;;;;;7.32;2.05;;;18.40;74.90;;;;;;5034194;28;20036;-86
2022/05/19 06:08:31;;;;;;;3.30;1.80;;;18.50;74.50;;;;;;5019390;28;20025;-86
2022/05/19 06:10:59;;;;;;;5.88;1.90;;;18.50;73.80;;;;;;5039184;28;20056;-87
2022/05/19 06:13:25;;;;;;;11.23;2.15;;;18.60;74.30;;;;;;5028189;28;20021;-86
2022/05/19 06:15:51;;;;;;;5.55;1.80;;;18.70;73.30;;;;;;5044097;28;20391;-85
2022/05/19 06:18:17;;;;;;;4.97;1.85;;;18.80;73.50;;;;;;5042996;28;20021;-87
2022/05/19 06:20:44;;;;;;;7.28;2.17;;;18.90;73.50;;;;;;5031730;28;20075;-85
2022/05/19 06:23:11;;;;;;;8.35;1.98;;;19.00;73.40;;;;;;5041691;28;20487;-86
2022/05/19 06:25:37;;;;;;;11.13;1.90;;;19.10;71.40;;;;;;5028923;28;20032;-87
2022/05/19 06:28:02;;;;;;;4.93;2.10;;;19.10;72.60;;;;;;5041832;28;20083;-86
2022/05/19 06:30:30;;;;;;;1.85;1.70;;;19.20;72.50;;;;;;5040480;28;20025;-85
2022/05/19 06:32:56;;;;;;;5.28;1.80;;;19.30;71.10;;;;;;5034349;28;20049;-87
2022/05/19 06:35:28;;;;;;;11.27;2.30;;;19.30;71.00;;;;;;5035460;28;20021;-89
2022/05/19 06:37:54;;;;;;;1.75;1.45;;;19.40;70.50;;;;;;5041933;28;20041;-86
2022/05/19 06:40:20;;;;;;;4.72;2.00;;;19.50;70.20;;;;;;5046555;28;20391;-82
2022/05/19 06:42:46;;;;;;;4.35;1.80;;;19.50;71.30;;;;;;5038891;28;20031;-88
2022/05/19 06:45:14;;;;;;;5.50;2.08;;;19.60;71.20;;;;;;5036132;28;20550;-85
2022/05/19 06:47:40;;;;;;;4.82;1.98;;;19.60;73.00;;;;;;5036717;28;20013;-88
2022/05/19 06:50:10;;;;;;;2.25;1.30;;;19.70;71.50;;;;;;5043134;28;20555;-89
2022/05/19 06:52:49;;;;;;;5.78;1.85;;;19.90;70.50;;;;;;5035277;28;20435;-86
2022/05/19 06:55:16;;;;;;;46.35;7.22;;;20.00;71.20;;;;;;5036226;28;20028;-88
2022/05/19 06:57:43;;;;;;;19.17;3.97;;;20.00;70.70;;;;;;5025573;28;20041;-85
2022/05/19 07:00:17;;;;;;;79.00;11.57;;;20.10;70.40;;;;;;5038188;28;20376;-85
2022/05/19 07:02:49;;;;;;;8.15;2.70;;;20.30;68.60;;;;;;5036973;28;20115;-86
2022/05/19 07:05:17;;;;;;;8.73;3.33;;;20.40;70.40;;;;;;5038968;28;20023;-90
2022/05/19 07:07:46;;;;;;;2.40;1.73;;;20.40;67.30;;;;;;5039622;28;20117;-86
2022/05/19 07:10:18;;;;;;;41.72;14.15;;;20.60;67.70;;;;;;5034481;28;20013;-87
2022/05/19 07:12:44;;;;;;;4.97;1.85;;;20.70;69.50;;;;;;5037307;28;20017;-86
2022/05/19 07:15:11;;;;;;;12.15;4.90;;;20.70;68.00;;;;;;5024683;28;20013;-85
2022/05/19 07:17:38;;;;;;;17.33;3.83;;;20.70;66.20;;;;;;5039771;28;20133;-87
2022/05/19 07:22:48;;;;;;;12.93;3.72;;;20.80;65.60;;;;;;5038701;28;20095;-84
2022/05/19 07:25:14;;;;;;;6.35;2.10;;;20.80;67.30;;;;;;5036714;28;20653;-90
2022/05/19 07:27:39;;;;;;;3.97;2.35;;;20.90;68.80;;;;;;5036005;28;20044;-85
2022/05/19 07:30:06;;;;;;;9.40;3.67;;;21.00;64.80;;;;;;5034983;28;20445;-89
2022/05/19 07:32:32;;;;;;;3.63;1.77;;;21.10;65.10;;;;;;5021029;28;20027;-87
2022/05/19 07:34:58;;;;;;;15.52;3.53;;;21.10;61.10;;;;;;5036018;28;20088;-83
2022/05/19 07:37:27;;;;;;;8.75;2.22;;;21.20;61.00;;;;;;5041268;28;20041;-83
2022/05/19 07:39:56;;;;;;;4.05;1.60;;;21.20;61.00;;;;;;5036013;28;20040;-83
2022/05/19 07:42:22;;;;;;;4.90;2.00;;;21.30;60.40;;;;;;5043223;28;20017;-84
2022/05/19 07:44:47;;;;;;;12.45;2.65;;;21.30;59.40;;;;;;5036402;28;20606;-84
2022/05/19 07:47:16;;;;;;;3.05;1.55;;;21.30;56.60;;;;;;5038356;28;20027;-88
2022/05/19 07:49:42;;;;;;;6.57;1.67;;;21.30;55.00;;;;;;5037550;28;20055;-87
2022/05/19 07:52:08;;;;;;;3.63;1.65;;;21.30;58.30;;;;;;5020191;28;20021;-86
2022/05/19 07:54:34;;;;;;;2.97;1.40;;;21.30;54.10;;;;;;5048343;28;20082;-85
2022/05/19 07:57:00;;;;;;;3.65;1.80;;;21.40;57.70;;;;;;5039833;28;20017;-85
2022/05/19 07:59:26;;;;;;;3.25;1.35;;;21.50;59.60;;;;;;5035003;28;20435;-84
2022/05/19 08:01:53;;;;;;;4.55;1.65;;;21.50;56.60;;;;;;5042938;28;20506;-84
2022/05/19 08:04:23;;;;;;;5.55;1.67;;;21.70;54.50;;;;;;5045895;28;20032;-82
2022/05/19 08:06:49;;;;;;;6.05;2.42;;;21.70;51.60;;;;;;5036703;28;20054;-85
2022/05/19 08:12:01;;;;;;;63.05;12.52;;;21.70;53.40;;;;;;5038369;28;20078;-87
2022/05/19 08:17:11;;;;;;;7.70;2.13;;;21.80;56.90;;;;;;5041052;28;20086;-87
2022/05/19 08:19:37;;;;;;;5.10;2.15;;;22.00;53.80;;;;;;5047045;28;20044;-84
2022/05/19 08:22:04;;;;;;;7.70;1.90;;;22.00;54.50;;;;;;5041757;28;20048;-86
2022/05/19 08:24:30;;;;;;;8.02;1.92;;;21.90;59.20;;;;;;5037723;28;20033;-85
2022/05/19 08:26:56;;;;;;;9.05;1.75;;;21.80;57.80;;;;;;5041693;28;20021;-88
2022/05/19 08:29:22;;;;;;;3.35;1.73;;;21.80;57.70;;;;;;5044615;28;20475;-86
2022/05/19 08:31:48;;;;;;;4.82;2.22;;;21.80;57.50;;;;;;5039827;28;20060;-86
2022/05/19 08:34:14;;;;;;;4.03;1.98;;;21.80;57.40;;;;;;5045828;28;20542;-86
2022/05/19 08:36:41;;;;;;;6.93;1.90;;;21.90;58.30;;;;;;5040579;28;20021;-85
2022/05/19 08:39:10;;;;;;;4.70;1.58;;;22.00;57.70;;;;;;5044809;28;20044;-88
2022/05/19 08:41:50;;;;;;;5.05;1.83;;;21.90;55.30;;;;;;5040599;28;20029;-90
2022/05/19 08:44:30;;;;;;;6.00;1.70;;;21.70;55.70;;;;;;5043576;28;20036;-87
2022/05/19 08:46:59;;;;;;;8.02;1.70;;;21.50;56.10;;;;;;5036130;28;20022;-88
2022/05/19 08:49:48;;;;;;;3.50;1.75;;;21.40;57.40;;;;;;5035892;28;20143;-84
2022/05/19 08:52:20;;;;;;;4.65;1.77;;;21.50;58.10;;;;;;5014807;28;20029;-87
2022/05/19 08:54:49;;;;;;;3.70;1.65;;;21.60;57.40;;;;;;5045913;28;20029;-88
2022/05/19 08:57:20;;;;;;;3.33;1.75;;;21.70;56.70;;;;;;5041431;28;20119;-88
2022/05/19 08:59:58;;;;;;;3.53;1.60;;;21.60;58.30;;;;;;5045451;28;20039;-89
2022/05/19 09:02:45;;;;;;;5.65;1.90;;;21.50;57.80;;;;;;5040218;28;20090;-87
2022/05/19 09:05:23;;;;;;;2.50;1.52;;;21.50;58.70;;;;;;5046084;28;20624;-87
2022/05/19 09:08:18;;;;;;;4.80;1.63;;;21.60;57.80;;;;;;5011892;28;20025;-87
2022/05/19 09:11:10;;;;;;;4.32;2.05;;;21.70;58.00;;;;;;4929535;28;20479;-83
2022/05/19 09:13:37;;;;;;;2.92;1.58;;;21.70;57.60;;;;;;5021150;28;20519;-86
2022/05/19 09:16:13;;;;;;;4.65;1.70;;;21.70;57.60;;;;;;5021845;28;20116;-84
2022/05/19 09:18:43;;;;;;;6.15;1.90;;;21.80;60.90;;;;;;5041655;28;20041;-87
2022/05/19 09:21:09;;;;;;;7.88;2.22;;;22.00;58.70;;;;;;5023872;28;20546;-88
2022/05/19 09:23:36;;;;;;;5.47;1.35;;;22.00;58.20;;;;;;5039716;28;20037;-86
2022/05/19 09:26:22;;;;;;;3.25;1.50;;;21.90;59.10;;;;;;5038556;28;20036;-87
2022/05/19 09:29:08;;;;;;;2.55;1.73;;;21.90;58.10;;;;;;5039920;28;20029;-86
2022/05/19 09:31:46;;;;;;;3.50;1.80;;;21.90;59.80;;;;;;5041060;28;20021;-85
2022/05/19 09:34:12;;;;;;;4.07;1.70;;;21.90;61.10;;;;;;5028849;28;20044;-88
2022/05/19 09:36:53;;;;;;;4.15;2.00;;;22.00;60.70;;;;;;5023703;28;20031;-87
2022/05/19 09:39:20;;;;;;;4.82;2.10;;;21.90;60.00;;;;;;5040558;28;20427;-86
2022/05/19 09:41:51;;;;;;;4.35;1.73;;;22.00;60.80;;;;;;5037071;28;20484;-85
2022/05/19 09:44:27;;;;;;;3.08;1.88;;;22.00;61.00;;;;;;5015293;28;20052;-88
2022/05/19 09:46:54;;;;;;;7.15;1.83;;;22.00;60.20;;;;;;5037636;28;20017;-87
2022/05/19 09:49:32;;;;;;;5.70;1.80;;;21.90;60.30;;;;;;5044771;28;20045;-87
2022/05/19 09:52:04;;;;;;;4.68;2.13;;;22.10;60.90;;;;;;5038809;28;20021;-87
2022/05/19 09:54:34;;;;;;;5.40;1.77;;;22.30;59.80;;;;;;5044083;28;20039;-87
2022/05/19 09:57:10;;;;;;;3.15;1.80;;;22.40;60.20;;;;;;5038938;28;20060;-88
2022/05/19 09:59:46;;;;;;;8.77;2.28;;;22.20;59.00;;;;;;5025691;28;20037;-87
2022/05/19 10:02:17;;;;;;;7.65;2.20;;;22.10;58.90;;;;;;5039882;28;20483;-89
2022/05/19 10:04:53;;;;;;;4.45;2.00;;;22.10;59.50;;;;;;5042247;28;20037;-87
2022/05/19 10:07:26;;;;;;;3.60;2.05;;;22.20;59.70;;;;;;5039302;28;20033;-89
2022/05/19 10:09:56;;;;;;;5.80;2.53;;;22.50;59.30;;;;;;5026977;28;20018;-88
2022/05/19 10:12:31;;;;;;;3.90;1.83;;;22.60;58.70;;;;;;5040668;28;20063;-88
2022/05/19 10:15:14;;;;;;;7.18;1.90;;;22.50;59.90;;;;;;5030315;28;20056;-89
2022/05/19 10:18:05;;;;;;;;;;;22.50;59.60;;;;;;5019900;28;20036;-91
2022/05/19 10:20:37;;;;;;;6.90;1.60;;;22.40;60.00;;;;;;5037401;28;20000;-87
2022/05/19 10:23:03;;;;;;;;;;;22.40;59.60;;;;;;5022475;28;20483;-87
2022/05/19 10:25:34;;;;;;;4.07;2.00;;;22.50;59.90;;;;;;5037968;28;19948;-88
2022/05/19 10:31:21;;;;;;;7.32;2.03;;;22.50;60.80;;;;;;5031463;28;20035;-86
2022/05/19 10:34:01;;;;;;;3.40;1.92;;;22.00;66.60;;;;;;5010583;28;20034;-86
2022/05/19 10:36:55;;;;;;;2.10;1.90;;;21.80;70.50;;;;;;5022332;28;20021;-86
2022/05/19 10:39:24;;;;;;;2.92;2.17;;;21.80;76.90;;;;;;5042729;28;20087;-87
2022/05/19 10:41:50;;;;;;;9.32;2.13;;;21.60;79.00;;;;;;5036697;28;20506;-86
2022/05/19 10:45:00;;;;;;;5.45;1.77;;;21.50;83.10;;;;;;5035610;28;20029;-87
2022/05/19 10:48:00;;;;;;;4.70;2.00;;;21.60;81.50;;;;;;5039668;28;20512;-86
2022/05/19 10:50:35;;;;;;;3.05;1.80;;;21.50;80.30;;;;;;5018407;28;20059;-87
2022/05/19 10:53:06;;;;;;;4.50;1.98;;;21.60;80.60;;;;;;5040084;28;20514;-86
2022/05/19 10:56:07;;;;;;;3.80;2.13;;;21.60;80.30;;;;;;5044954;28;20029;-86
2022/05/19 10:58:54;;;;;;;7.03;2.13;;;21.40;75.90;;;;;;5042754;28;20543;-85
2022/05/19 11:01:32;;;;;;;4.22;1.70;;;21.30;80.70;;;;;;5023333;28;20033;-85
2022/05/19 11:03:58;;;;;;;3.75;1.90;;;21.60;72.60;;;;;;5039847;28;20481;-88
2022/05/19 11:06:46;;;;;;;5.05;1.77;;;21.80;65.30;;;;;;5042475;28;20037;-88
2022/05/19 11:09:38;;;;;;;6.93;1.98;;;21.90;64.50;;;;;;5046867;28;20122;-87
2022/05/19 11:12:20;;;;;;;3.97;1.73;;;22.10;63.10;;;;;;5041030;28;20034;-87
2022/05/19 11:14:52;;;;;;;3.20;1.90;;;22.10;64.70;;;;;;5046409;28;20033;-86
2022/05/19 11:17:45;;;;;;;5.65;1.95;;;22.00;67.20;;;;;;5042625;28;20041;-87
2022/05/19 11:20:17;;;;;;;5.40;1.92;;;21.80;67.90;;;;;;5046624;28;20033;-88
2022/05/19 11:22:46;;;;;;;6.13;1.90;;;21.70;68.40;;;;;;5037458;28;20997;-88
2022/05/19 11:28:24;;;;;;;2.75;1.88;;;21.80;71.50;;;;;;5042734;28;20060;-88
2022/05/19 11:30:58;;;;;;;3.67;1.80;;;21.70;72.80;;;;;;5035947;28;20036;-88
2022/05/19 11:33:27;;;;;;;3.85;2.15;;;21.90;72.50;;;;;;5041187;28;20104;-87
2022/05/19 11:36:19;;;;;;;10.85;2.03;;;21.80;71.90;;;;;;5038526;28;20063;-86
2022/05/19 11:39:27;;;;;;;5.90;1.80;;;21.70;73.90;;;;;;5038990;28;20103;-85
2022/05/19 11:42:00;;;;;;;3.38;1.65;;;21.90;73.30;;;;;;5035973;28;20033;-88
2022/05/19 11:44:28;;;;;;;;;;;21.90;73.80;;;;;;5039419;28;20036;-86
2022/05/19 11:47:09;;;;;;;3.65;1.98;;;22.00;72.00;;;;;;5039215;28;19913;-85
2022/05/19 11:55:40;;;;;;;3.92;1.67;;;22.10;71.90;;;;;;5036798;28;20514;-87
2022/05/19 11:58:10;;;;;;;4.43;2.03;;;22.00;73.50;;;;;;5044277;28;20040;-85
2022/05/19 12:00:59;;;;;;;4.50;2.17;;;22.90;75.20;;;;;;5022827;28;20057;-87
2022/05/19 12:03:45;;;;;;;2.63;1.83;;;26.10;70.90;;;;;;5039023;28;20087;-93
2022/05/19 12:06:12;;;;;;;10.40;1.95;;;27.30;68.40;;;;;;5038857;28;20448;-85
2022/05/19 12:09:01;;;;;;;6.40;1.90;;;27.70;67.60;;;;;;5043484;28;20025;-87
2022/05/19 12:11:52;;;;;;;5.35;2.13;;;28.10;68.00;;;;;;5039504;28;20025;-86
2022/05/19 12:14:35;;;;;;;4.90;2.20;;;29.10;65.60;;;;;;5040721;28;20025;-87
2022/05/19 12:17:13;;;;;;;4.18;1.80;;;29.00;66.50;;;;;;5039595;28;20040;-89
2022/05/19 12:19:52;;;;;;;6.07;1.80;;;28.20;66.40;;;;;;5047687;28;20052;-89
2022/05/19 12:22:32;;;;;;;5.70;1.95;;;28.10;66.20;;;;;;5054822;28;20029;-94
2022/05/19 12:25:01;;;;;;;7.88;1.67;;;28.20;67.00;;;;;;5031647;28;20511;-88
2022/05/19 12:28:08;;;;;;;4.47;1.85;;;28.90;69.20;;;;;;5035318;28;20026;-84
2022/05/19 12:33:29;;;;;;;3.20;2.03;;;28.40;68.90;;;;;;5037278;28;20110;-84
2022/05/19 12:36:12;;;;;;;6.05;1.95;;;29.50;68.50;;;;;;5036575;28;20033;-88
2022/05/19 12:38:41;;;;;;;4.55;1.75;;;30.00;68.00;;;;;;5039120;28;20048;-92
2022/05/19 12:41:26;;;;;;;8.75;2.03;;;31.00;64.90;;;;;;5038600;28;20029;-86
2022/05/19 12:43:53;;;;;;;5.63;1.92;;;30.90;66.40;;;;;;5011491;28;20029;-85
2022/05/19 12:46:34;;;;;;;3.67;1.73;;;32.00;64.90;;;;;;5040611;28;20021;-90
2022/05/19 12:49:26;;;;;;;6.20;1.88;;;31.90;65.70;;;;;;5045221;28;20463;-86
2022/05/19 12:52:00;;;;;;;5.45;1.77;;;32.90;63.80;;;;;;5034548;28;20389;-95
2022/05/19 12:54:33;;;;;;;3.65;1.85;;;32.60;62.70;;;;;;5031949;28;20376;-93
2022/05/19 12:57:08;;;;;;;4.43;1.60;;;32.20;62.60;;;;;;5019855;28;20392;-89
2022/05/19 12:59:55;;;;;;;5.75;1.75;;;31.80;63.80;;;;;;5045772;28;20046;-87
2022/05/19 13:02:32;;;;;;;4.22;1.88;;;32.40;64.10;;;;;;5041880;28;20482;-92
2022/05/19 13:05:04;;;;;;;3.75;1.65;;;34.20;63.00;;;;;;5026220;28;20039;-90
2022/05/19 13:07:43;;;;;;;5.20;2.15;;;34.70;61.30;;;;;;5019138;28;20384;-91
2022/05/19 13:10:25;;;;;;;4.93;1.90;;;34.50;61.80;;;;;;5020863;28;20021;-85
2022/05/19 13:13:54;;;;;;;3.90;1.90;;;33.30;62.60;;;;;;5021305;28;20455;-84
2022/05/19 13:16:30;;;;;;;4.20;2.10;;;32.60;63.40;;;;;;4990447;28;20028;-86
2022/05/19 13:19:06;;;;;;;8.88;2.20;;;32.40;63.70;;;;;;5018101;28;20037;-84
2022/05/19 13:21:51;;;;;;;3.92;1.63;;;31.70;65.40;;;;;;5022387;28;20105;-86
2022/05/19 13:24:19;;;;;;;3.40;2.00;;;33.00;61.20;;;;;;5034083;28;20025;-85
2022/05/19 13:30:20;;;;;;;4.47;2.00;;;33.80;62.20;;;;;;5023589;28;20036;-88
2022/05/19 13:32:33;;;;;;;6.32;1.55;;;31.40;66.10;;;;;;5037117;28;20064;-89
2022/05/19 13:35:01;;;;;;;6.00;1.98;;;31.30;65.80;;;;;;5017243;28;20547;-85
2022/05/19 13:37:38;;;;;;;7.88;1.90;;;31.90;64.80;;;;;;5035949;28;20031;-83
2022/05/19 13:40:13;;;;;;;4.57;1.63;;;32.40;63.10;;;;;;5030501;28;20460;-84